sensor_id;sensor_type;location;lat;lon;timestamp;pressure;altitude;pressure_sealevel;temperature;humidity
51297;BME280;37380;45.186;9.792;2023-03-19T00:02:12;101326.94;;;8.06;100.00
51297;BME280;37380;45.186;9.792;2023-03-19T00:04:45;101372.50;;;8.30;100.00
51297;BME280;37380;45.186;9.792;2023-03-19T00:07:14;101384.44;;;8.42;100.00
51297;BME280;37380;45.186;9.792;2023-03-19T00:09:42;101380.06;;;8.26;100.00
51297;BME280;37380;45.186;9.792;2023-03-19T00:12:10;101367.38;;;8.15;100.00
51297;BME280;37380;45.186;9.792;2023-03-19T00:14:44;101351.94;;;7.87;100.00
51297;BME280;37380;45.186;9.792;2023-03-19T00:17:45;101265.03;;;7.53;100.00
51297;BME280;37380;45.186;9.792;2023-03-19T00:20:40;101345.94;;;8.05;100.00
51297;BME280;37380;45.186;9.792;2023-03-19T00:23:07;101303.09;;;7.67;100.00
51297;BME280;37380;45.186;9.792;2023-03-19T00:25:35;101334.38;;;7.83;100.00
51297;BME280;37380;45.186;9.792;2023-03-19T00:28:02;101335.03;;;7.96;100.00
51297;BME280;37380;45.186;9.792;2023-03-19T00:30:29;101271.88;;;7.51;100.00
51297;BME280;37380;45.186;9.792;2023-03-19T00:32:56;101369.09;;;8.15;100.00
51297;BME280;37380;45.186;9.792;2023-03-19T00:35:24;101339.84;;;8.04;100.00
51297;BME280;37380;45.186;9.792;2023-03-19T00:37:51;101376.56;;;8.25;100.00
51297;BME280;37380;45.186;9.792;2023-03-19T00:40:18;101346.28;;;8.11;100.00
51297;BME280;37380;45.186;9.792;2023-03-19T00:42:45;101277.03;;;7.65;100.00
51297;BME280;37380;45.186;9.792;2023-03-19T00:45:12;101306.53;;;7.82;100.00
51297;BME280;37380;45.186;9.792;2023-03-19T00:47:39;101376.47;;;8.38;100.00
51297;BME280;37380;45.186;9.792;2023-03-19T00:50:08;101355.09;;;8.13;100.00
51297;BME280;37380;45.186;9.792;2023-03-19T00:52:42;101327.84;;;8.06;100.00
51297;BME280;37380;45.186;9.792;2023-03-19T00:55:37;101386.88;;;8.38;100.00
51297;BME280;37380;45.186;9.792;2023-03-19T00:58:04;101216.28;;;7.48;100.00
51297;BME280;37380;45.186;9.792;2023-03-19T01:00:33;101361.59;;;8.21;100.00
51297;BME280;37380;45.186;9.792;2023-03-19T01:03:04;101368.00;;;8.11;100.00
51297;BME280;37380;45.186;9.792;2023-03-19T01:05:35;101321.09;;;7.79;100.00
51297;BME280;37380;45.186;9.792;2023-03-19T01:08:02;101338.72;;;7.68;100.00
51297;BME280;37380;45.186;9.792;2023-03-19T01:10:32;101338.72;;;7.68;100.00
51297;BME280;37380;45.186;9.792;2023-03-19T01:13:08;101292.66;;;7.36;100.00
51297;BME280;37380;45.186;9.792;2023-03-19T01:16:09;101332.81;;;7.56;100.00
51297;BME280;37380;45.186;9.792;2023-03-19T01:18:45;101256.50;;;6.94;100.00
51297;BME280;37380;45.186;9.792;2023-03-19T01:21:12;101294.69;;;7.10;100.00
51297;BME280;37380;45.186;9.792;2023-03-19T01:23:45;101292.16;;;6.82;100.00
51297;BME280;37380;45.186;9.792;2023-03-19T01:26:12;101282.94;;;6.87;100.00
51297;BME280;37380;45.186;9.792;2023-03-19T01:28:40;101271.28;;;6.66;100.00
51297;BME280;37380;45.186;9.792;2023-03-19T01:31:08;101362.16;;;7.09;100.00
51297;BME280;37380;45.186;9.792;2023-03-19T01:34:02;101297.94;;;6.63;100.00
51297;BME280;37380;45.186;9.792;2023-03-19T01:36:57;101354.75;;;6.72;100.00
51297;BME280;37380;45.186;9.792;2023-03-19T01:39:30;101305.19;;;6.54;100.00
51297;BME280;37380;45.186;9.792;2023-03-19T01:42:00;101352.53;;;6.78;100.00
51297;BME280;37380;45.186;9.792;2023-03-19T01:44:45;101261.97;;;6.11;100.00
51297;BME280;37380;45.186;9.792;2023-03-19T01:50:36;101370.91;;;6.81;100.00
51297;BME280;37380;45.186;9.792;2023-03-19T01:53:36;101272.91;;;6.21;100.00
51297;BME280;37380;45.186;9.792;2023-03-19T01:56:19;101273.75;;;6.06;100.00
51297;BME280;37380;45.186;9.792;2023-03-19T01:59:29;101284.94;;;6.05;100.00
51297;BME280;37380;45.186;9.792;2023-03-19T02:02:31;101358.97;;;6.70;100.00
51297;BME280;37380;45.186;9.792;2023-03-19T02:05:12;101352.53;;;6.78;100.00
51297;BME280;37380;45.186;9.792;2023-03-19T02:07:48;101343.97;;;6.66;100.00
51297;BME280;37380;45.186;9.792;2023-03-19T02:10:50;101317.22;;;6.67;100.00
51297;BME280;37380;45.186;9.792;2023-03-19T02:13:53;101253.06;;;6.36;100.00
51297;BME280;37380;45.186;9.792;2023-03-19T02:16:54;101246.28;;;6.38;100.00
51297;BME280;37380;45.186;9.792;2023-03-19T02:19:52;101348.97;;;7.06;100.00
51297;BME280;37380;45.186;9.792;2023-03-19T02:22:26;101340.75;;;7.13;100.00
51297;BME280;37380;45.186;9.792;2023-03-19T02:25:00;101341.88;;;7.18;100.00
51297;BME280;37380;45.186;9.792;2023-03-19T02:27:29;101215.53;;;6.16;100.00
51297;BME280;37380;45.186;9.792;2023-03-19T02:29:57;101320.53;;;6.64;100.00
51297;BME280;37380;45.186;9.792;2023-03-19T02:32:24;101329.06;;;6.76;100.00
51297;BME280;37380;45.186;9.792;2023-03-19T02:34:52;101301.66;;;6.67;100.00
51297;BME280;37380;45.186;9.792;2023-03-19T02:37:27;101326.56;;;6.78;100.00
51297;BME280;37380;45.186;9.792;2023-03-19T02:40:06;101244.56;;;6.24;100.00
51297;BME280;37380;45.186;9.792;2023-03-19T02:42:35;101190.41;;;6.15;100.00
51297;BME280;37380;45.186;9.792;2023-03-19T02:45:02;101225.75;;;6.28;100.00
51297;BME280;37380;45.186;9.792;2023-03-19T02:47:30;101314.00;;;6.71;100.00
51297;BME280;37380;45.186;9.792;2023-03-19T02:49:57;101288.31;;;6.61;100.00
51297;BME280;37380;45.186;9.792;2023-03-19T02:52:24;101257.00;;;6.29;100.00
51297;BME280;37380;45.186;9.792;2023-03-19T02:54:51;101300.53;;;6.48;100.00
51297;BME280;37380;45.186;9.792;2023-03-19T02:57:18;101235.00;;;6.23;100.00
51297;BME280;37380;45.186;9.792;2023-03-19T02:59:53;101285.59;;;6.59;100.00
51297;BME280;37380;45.186;9.792;2023-03-19T03:02:47;101269.38;;;6.48;100.00
51297;BME280;37380;45.186;9.792;2023-03-19T03:05:14;101268.63;;;6.36;100.00
51297;BME280;37380;45.186;9.792;2023-03-19T03:07:41;101260.94;;;6.23;100.00
51297;BME280;37380;45.186;9.792;2023-03-19T03:10:11;101318.66;;;6.62;100.00
51297;BME280;37380;45.186;9.792;2023-03-19T03:12:40;101298.34;;;6.26;100.00
51297;BME280;37380;45.186;9.792;2023-03-19T03:15:14;101267.16;;;6.11;100.00
51297;BME280;37380;45.186;9.792;2023-03-19T03:18:15;101303.34;;;6.23;100.00
51297;BME280;37380;45.186;9.792;2023-03-19T03:21:09;101299.22;;;5.85;100.00
51297;BME280;37380;45.186;9.792;2023-03-19T03:23:37;101331.34;;;6.01;100.00
51297;BME280;37380;45.186;9.792;2023-03-19T03:26:04;101314.97;;;5.88;100.00
51297;BME280;37380;45.186;9.792;2023-03-19T03:28:33;101247.78;;;5.24;100.00
51297;BME280;37380;45.186;9.792;2023-03-19T03:31:01;101344.03;;;5.56;100.00
51297;BME280;37380;45.186;9.792;2023-03-19T03:33:28;101319.50;;;5.38;100.00
51297;BME280;37380;45.186;9.792;2023-03-19T03:35:55;101371.75;;;5.71;100.00
51297;BME280;37380;45.186;9.792;2023-03-19T03:38:23;101350.00;;;5.68;100.00
51297;BME280;37380;45.186;9.792;2023-03-19T03:40:51;101321.69;;;5.45;100.00
51297;BME280;37380;45.186;9.792;2023-03-19T03:43:21;101290.31;;;5.27;100.00
51297;BME280;37380;45.186;9.792;2023-03-19T03:45:49;101345.09;;;5.47;100.00
51297;BME280;37380;45.186;9.792;2023-03-19T03:48:16;101272.44;;;5.05;100.00
51297;BME280;37380;45.186;9.792;2023-03-19T03:50:43;101164.22;;;4.21;100.00
51297;BME280;37380;45.186;9.792;2023-03-19T03:53:22;101328.25;;;5.13;100.00
51297;BME280;37380;45.186;9.792;2023-03-19T03:56:17;101372.31;;;5.40;100.00
51297;BME280;37380;45.186;9.792;2023-03-19T03:58:44;101289.16;;;4.84;100.00
51297;BME280;37380;45.186;9.792;2023-03-19T04:01:16;101333.22;;;5.10;100.00
51297;BME280;37380;45.186;9.792;2023-03-19T04:03:47;101399.34;;;5.30;100.00
51297;BME280;37380;45.186;9.792;2023-03-19T04:06:16;101382.72;;;5.53;100.00
51297;BME280;37380;45.186;9.792;2023-03-19T04:08:48;101285.22;;;5.15;100.00
51297;BME280;37380;45.186;9.792;2023-03-19T04:11:15;101247.53;;;4.94;100.00
51297;BME280;37380;45.186;9.792;2023-03-19T04:13:50;101349.78;;;5.52;100.00
51297;BME280;37380;45.186;9.792;2023-03-19T04:16:45;101345.31;;;5.36;100.00
51297;BME280;37380;45.186;9.792;2023-03-19T04:19:12;101285.50;;;5.20;100.00
51297;BME280;37380;45.186;9.792;2023-03-19T04:21:40;101250.00;;;4.79;100.00
51297;BME280;37380;45.186;9.792;2023-03-19T04:24:07;101387.59;;;5.62;100.00
51297;BME280;37380;45.186;9.792;2023-03-19T04:26:36;101346.81;;;5.33;100.00
51297;BME280;37380;45.186;9.792;2023-03-19T04:29:05;101388.59;;;5.77;100.00
51297;BME280;37380;45.186;9.792;2023-03-19T04:31:34;101386.09;;;5.79;100.00
51297;BME280;37380;45.186;9.792;2023-03-19T04:34:01;101362.78;;;5.39;100.00
51297;BME280;37380;45.186;9.792;2023-03-19T04:36:31;101299.47;;;4.70;100.00
51297;BME280;37380;45.186;9.792;2023-03-19T04:38:59;101384.69;;;5.31;100.00
51297;BME280;37380;45.186;9.792;2023-03-19T04:41:26;101353.16;;;5.11;100.00
51297;BME280;37380;45.186;9.792;2023-03-19T04:44:12;101336.09;;;4.63;100.00
51297;BME280;37380;45.186;9.792;2023-03-19T04:46:40;101375.38;;;4.83;100.00
51297;BME280;37380;45.186;9.792;2023-03-19T04:49:07;101313.06;;;4.29;100.00
51297;BME280;37380;45.186;9.792;2023-03-19T04:51:35;101342.50;;;4.68;100.00
51297;BME280;37380;45.186;9.792;2023-03-19T04:54:08;101367.00;;;4.73;100.00
51297;BME280;37380;45.186;9.792;2023-03-19T04:57:09;101344.66;;;4.62;100.00
51297;BME280;37380;45.186;9.792;2023-03-19T05:00:03;101358.38;;;4.86;100.00
51297;BME280;37380;45.186;9.792;2023-03-19T05:02:32;101356.91;;;5.03;100.00
51297;BME280;37380;45.186;9.792;2023-03-19T05:04:59;101386.25;;;5.29;100.00
51297;BME280;37380;45.186;9.792;2023-03-19T05:07:28;101323.03;;;5.00;100.00
51297;BME280;37380;45.186;9.792;2023-03-19T05:09:58;101275.78;;;4.64;100.00
51297;BME280;37380;45.186;9.792;2023-03-19T05:12:25;101292.66;;;4.84;100.00
51297;BME280;37380;45.186;9.792;2023-03-19T05:15:04;101378.13;;;5.36;100.00
51297;BME280;37380;45.186;9.792;2023-03-19T05:18:01;101291.84;;;4.72;100.00
51297;BME280;37380;45.186;9.792;2023-03-19T05:20:41;101382.19;;;4.94;100.00
51297;BME280;37380;45.186;9.792;2023-03-19T05:23:21;101316.75;;;4.83;100.00
51297;BME280;37380;45.186;9.792;2023-03-19T05:26:14;101312.53;;;4.72;100.00
51297;BME280;37380;45.186;9.792;2023-03-19T05:29:00;101290.06;;;4.46;100.00
51297;BME280;37380;45.186;9.792;2023-03-19T05:31:42;101240.44;;;4.26;100.00
51297;BME280;37380;45.186;9.792;2023-03-19T05:34:09;101331.63;;;4.61;100.00
51297;BME280;37380;45.186;9.792;2023-03-19T05:36:36;101371.06;;;4.95;100.00
51297;BME280;37380;45.186;9.792;2023-03-19T05:39:08;101402.69;;;5.29;100.00
51297;BME280;37380;45.186;9.792;2023-03-19T05:41:38;101391.66;;;5.32;100.00
51297;BME280;37380;45.186;9.792;2023-03-19T05:44:12;101396.09;;;5.08;100.00
51297;BME280;37380;45.186;9.792;2023-03-19T05:47:24;101397.50;;;5.16;100.00
51297;BME280;37380;45.186;9.792;2023-03-19T05:49:54;101411.19;;;5.40;100.00
51297;BME280;37380;45.186;9.792;2023-03-19T05:52:22;101302.69;;;4.80;100.00
51297;BME280;37380;45.186;9.792;2023-03-19T05:54:51;101407.47;;;5.61;100.00
51297;BME280;37380;45.186;9.792;2023-03-19T05:57:35;101373.81;;;5.50;100.00
51297;BME280;37380;45.186;9.792;2023-03-19T06:00:08;101410.44;;;5.67;100.00
51297;BME280;37380;45.186;9.792;2023-03-19T06:02:35;101419.03;;;6.06;100.00
51297;BME280;37380;45.186;9.792;2023-03-19T06:05:26;101414.44;;;6.16;100.00
51297;BME280;37380;45.186;9.792;2023-03-19T06:07:58;101446.13;;;6.38;100.00
51297;BME280;37380;45.186;9.792;2023-03-19T06:10:51;101419.41;;;6.26;100.00
51297;BME280;37380;45.186;9.792;2023-03-19T06:13:25;101407.75;;;5.79;100.00
51297;BME280;37380;45.186;9.792;2023-03-19T06:16:28;101416.00;;;6.27;100.00
51297;BME280;37380;45.186;9.792;2023-03-19T06:19:29;101392.78;;;6.15;100.00
51297;BME280;37380;45.186;9.792;2023-03-19T06:22:02;101406.00;;;6.46;100.00
51297;BME280;37380;45.186;9.792;2023-03-19T06:24:30;101423.78;;;6.40;100.00
51297;BME280;37380;45.186;9.792;2023-03-19T06:26:57;101389.94;;;6.25;100.00
51297;BME280;37380;45.186;9.792;2023-03-19T06:29:24;101371.13;;;6.15;100.00
51297;BME280;37380;45.186;9.792;2023-03-19T06:31:58;101390.16;;;6.28;100.00
51297;BME280;37380;45.186;9.792;2023-03-19T06:34:38;101287.91;;;6.11;100.00
51297;BME280;37380;45.186;9.792;2023-03-19T06:37:12;101402.84;;;6.80;100.00
51297;BME280;37380;45.186;9.792;2023-03-19T06:40:06;101396.97;;;6.97;100.00
51297;BME280;37380;45.186;9.792;2023-03-19T06:42:34;101428.88;;;6.95;100.00
51297;BME280;37380;45.186;9.792;2023-03-19T06:45:02;101453.50;;;7.44;100.00
51297;BME280;37380;45.186;9.792;2023-03-19T06:47:29;101425.53;;;7.40;100.00
51297;BME280;37380;45.186;9.792;2023-03-19T06:49:56;101384.81;;;7.56;100.00
51297;BME280;37380;45.186;9.792;2023-03-19T06:52:24;101395.31;;;8.03;100.00
51297;BME280;37380;45.186;9.792;2023-03-19T06:54:51;101428.63;;;8.40;100.00
51297;BME280;37380;45.186;9.792;2023-03-19T06:57:18;101380.59;;;7.58;100.00
51297;BME280;37380;45.186;9.792;2023-03-19T06:59:45;101478.25;;;8.74;100.00
51297;BME280;37380;45.186;9.792;2023-03-19T07:02:12;101445.50;;;9.28;100.00
51297;BME280;37380;45.186;9.792;2023-03-19T07:04:39;101387.84;;;9.40;100.00
51297;BME280;37380;45.186;9.792;2023-03-19T07:07:06;101453.66;;;9.87;100.00
51297;BME280;37380;45.186;9.792;2023-03-19T07:09:33;101477.16;;;10.05;100.00
51297;BME280;37380;45.186;9.792;2023-03-19T07:12:00;101391.53;;;9.80;100.00
51297;BME280;37380;45.186;9.792;2023-03-19T07:14:34;101451.56;;;9.80;100.00
51297;BME280;37380;45.186;9.792;2023-03-19T07:17:35;101489.38;;;9.88;100.00
51297;BME280;37380;45.186;9.792;2023-03-19T07:20:37;101431.31;;;10.28;100.00
51297;BME280;37380;45.186;9.792;2023-03-19T07:23:38;101413.81;;;9.91;100.00
51297;BME280;37380;45.186;9.792;2023-03-19T07:26:05;101466.94;;;10.82;100.00
51297;BME280;37380;45.186;9.792;2023-03-19T07:28:39;101489.16;;;10.92;100.00
51297;BME280;37380;45.186;9.792;2023-03-19T07:31:33;101466.19;;;10.85;100.00
51297;BME280;37380;45.186;9.792;2023-03-19T07:34:00;101505.06;;;11.36;100.00
51297;BME280;37380;45.186;9.792;2023-03-19T07:36:27;101515.25;;;11.10;100.00
51297;BME280;37380;45.186;9.792;2023-03-19T07:38:54;101470.69;;;11.47;100.00
51297;BME280;37380;45.186;9.792;2023-03-19T07:41:22;101474.56;;;11.36;100.00
51297;BME280;37380;45.186;9.792;2023-03-19T07:43:49;101422.13;;;11.14;100.00
51297;BME280;37380;45.186;9.792;2023-03-19T07:46:16;101491.31;;;12.22;100.00
51297;BME280;37380;45.186;9.792;2023-03-19T07:48:44;101479.19;;;12.03;100.00
51297;BME280;37380;45.186;9.792;2023-03-19T07:51:11;101463.94;;;12.36;100.00
51297;BME280;37380;45.186;9.792;2023-03-19T07:53:37;101441.09;;;12.11;100.00
51297;BME280;37380;45.186;9.792;2023-03-19T07:56:05;101439.56;;;11.95;100.00
51297;BME280;37380;45.186;9.792;2023-03-19T07:58:34;101434.84;;;11.87;100.00
51297;BME280;37380;45.186;9.792;2023-03-19T08:01:02;101446.19;;;12.29;100.00
51297;BME280;37380;45.186;9.792;2023-03-19T08:03:29;101477.72;;;11.89;100.00
51297;BME280;37380;45.186;9.792;2023-03-19T08:05:56;101475.28;;;11.13;100.00
51297;BME280;37380;45.186;9.792;2023-03-19T08:08:23;101473.47;;;11.31;100.00
51297;BME280;37380;45.186;9.792;2023-03-19T08:10:52;101508.13;;;11.06;100.00
51297;BME280;37380;45.186;9.792;2023-03-19T08:13:26;101507.22;;;11.25;100.00
51297;BME280;37380;45.186;9.792;2023-03-19T08:16:20;101454.22;;;11.29;100.00
51297;BME280;37380;45.186;9.792;2023-03-19T08:18:47;101438.66;;;11.32;100.00
51297;BME280;37380;45.186;9.792;2023-03-19T08:21:24;101446.69;;;11.57;100.00
51297;BME280;37380;45.186;9.792;2023-03-19T08:24:26;101481.63;;;11.18;100.00
51297;BME280;37380;45.186;9.792;2023-03-19T08:27:20;101527.31;;;11.06;100.00
51297;BME280;37380;45.186;9.792;2023-03-19T08:29:47;101502.38;;;11.74;100.00
51297;BME280;37380;45.186;9.792;2023-03-19T08:32:14;101518.00;;;12.34;100.00
51297;BME280;37380;45.186;9.792;2023-03-19T08:34:42;101459.34;;;12.10;100.00
51297;BME280;37380;45.186;9.792;2023-03-19T08:37:09;101482.69;;;12.47;100.00
51297;BME280;37380;45.186;9.792;2023-03-19T08:39:37;101500.28;;;12.72;100.00
51297;BME280;37380;45.186;9.792;2023-03-19T08:42:04;101386.06;;;11.68;100.00
51297;BME280;37380;45.186;9.792;2023-03-19T08:44:31;101488.75;;;12.91;100.00
51297;BME280;37380;45.186;9.792;2023-03-19T08:46:58;101516.75;;;12.47;100.00
51297;BME280;37380;45.186;9.792;2023-03-19T08:49:25;101519.63;;;12.98;100.00
51297;BME280;37380;45.186;9.792;2023-03-19T08:51:53;101500.41;;;13.46;100.00
51297;BME280;37380;45.186;9.792;2023-03-19T08:54:20;101513.97;;;14.36;100.00
51297;BME280;37380;45.186;9.792;2023-03-19T08:56:48;101439.69;;;12.88;100.00
51297;BME280;37380;45.186;9.792;2023-03-19T08:59:16;101457.34;;;12.93;100.00
51297;BME280;37380;45.186;9.792;2023-03-19T09:01:43;101494.44;;;13.26;100.00
51297;BME280;37380;45.186;9.792;2023-03-19T09:04:10;101493.38;;;13.45;100.00
51297;BME280;37380;45.186;9.792;2023-03-19T09:06:37;101480.44;;;13.03;100.00
51297;BME280;37380;45.186;9.792;2023-03-19T09:09:04;101462.13;;;13.52;100.00
51297;BME280;37380;45.186;9.792;2023-03-19T09:11:38;101549.19;;;13.39;100.00
51297;BME280;37380;45.186;9.792;2023-03-19T09:14:39;101492.97;;;13.10;100.00
51297;BME280;37380;45.186;9.792;2023-03-19T09:17:40;101506.84;;;12.61;100.00
51297;BME280;37380;45.186;9.792;2023-03-19T09:20:42;101484.66;;;12.53;100.00
51297;BME280;37380;45.186;9.792;2023-03-19T09:23:24;101575.66;;;13.23;100.00
51297;BME280;37380;45.186;9.792;2023-03-19T09:25:51;101553.25;;;13.08;100.00
51297;BME280;37380;45.186;9.792;2023-03-19T09:28:19;101516.56;;;12.86;100.00
51297;BME280;37380;45.186;9.792;2023-03-19T09:30:47;101562.81;;;14.02;100.00
51297;BME280;37380;45.186;9.792;2023-03-19T09:33:16;101534.00;;;13.30;100.00
51297;BME280;37380;45.186;9.792;2023-03-19T09:35:49;101544.53;;;14.33;100.00
51297;BME280;37380;45.186;9.792;2023-03-19T09:38:20;101546.41;;;14.62;100.00
51297;BME280;37380;45.186;9.792;2023-03-19T09:41:00;101535.19;;;13.64;100.00
51297;BME280;37380;45.186;9.792;2023-03-19T09:44:02;101537.25;;;13.47;100.00
51297;BME280;37380;45.186;9.792;2023-03-19T09:46:54;101436.34;;;13.92;100.00
51297;BME280;37380;45.186;9.792;2023-03-19T09:49:26;101503.31;;;14.04;100.00
51297;BME280;37380;45.186;9.792;2023-03-19T09:52:02;101530.97;;;14.46;100.00
51297;BME280;37380;45.186;9.792;2023-03-19T09:54:49;101498.13;;;14.60;100.00
51297;BME280;37380;45.186;9.792;2023-03-19T09:57:18;101497.81;;;15.08;99.82
51297;BME280;37380;45.186;9.792;2023-03-19T09:59:46;101524.19;;;15.72;96.45
51297;BME280;37380;45.186;9.792;2023-03-19T10:15:21;101517.47;;;16.19;88.76
51297;BME280;37380;45.186;9.792;2023-03-19T10:25:58;101501.78;;;17.45;84.40
51297;BME280;37380;45.186;9.792;2023-03-19T10:28:28;101514.94;;;17.87;81.77
51297;BME280;37380;45.186;9.792;2023-03-19T10:31:27;101516.22;;;17.17;85.80
51297;BME280;37380;45.186;9.792;2023-03-19T10:36:42;101468.00;;;16.45;89.45
51297;BME280;37380;45.186;9.792;2023-03-19T10:39:14;101504.00;;;16.81;84.64
51297;BME280;37380;45.186;9.792;2023-03-19T10:42:06;101503.66;;;15.61;89.52
51297;BME280;37380;45.186;9.792;2023-03-19T10:44:41;101513.75;;;16.11;88.97
51297;BME280;37380;45.186;9.792;2023-03-19T10:47:13;101505.94;;;16.50;88.60
51297;BME280;37380;45.186;9.792;2023-03-19T10:49:41;101474.75;;;16.34;89.03
51297;BME280;37380;45.186;9.792;2023-03-19T10:52:21;101444.25;;;16.45;88.63
51297;BME280;37380;45.186;9.792;2023-03-19T10:55:02;101493.41;;;16.80;87.09
51297;BME280;37380;45.186;9.792;2023-03-19T10:58:15;101449.19;;;14.96;95.41
51297;BME280;37380;45.186;9.792;2023-03-19T11:00:45;101504.19;;;15.80;93.29
51297;BME280;37380;45.186;9.792;2023-03-19T11:03:48;101472.91;;;16.30;93.38
51297;BME280;37380;45.186;9.792;2023-03-19T11:06:21;101486.75;;;15.85;96.26
51297;BME280;37380;45.186;9.792;2023-03-19T11:08:57;101442.84;;;15.52;98.42
51297;BME280;37380;45.186;9.792;2023-03-19T11:11:32;101478.09;;;15.57;95.16
51297;BME280;37380;45.186;9.792;2023-03-19T11:14:12;101475.19;;;16.15;90.72
51297;BME280;37380;45.186;9.792;2023-03-19T11:20:33;101456.53;;;15.71;94.42
51297;BME280;37380;45.186;9.792;2023-03-19T11:23:01;101472.56;;;16.15;91.25
51297;BME280;37380;45.186;9.792;2023-03-19T11:25:38;101467.97;;;16.07;92.02
51297;BME280;37380;45.186;9.792;2023-03-19T11:28:12;101444.06;;;15.65;93.72
51297;BME280;37380;45.186;9.792;2023-03-19T11:46:22;101340.84;;;15.47;89.93
51297;BME280;37380;45.186;9.792;2023-03-19T11:55:10;101424.03;;;17.29;84.45
51297;BME280;37380;45.186;9.792;2023-03-19T12:00:27;101434.63;;;19.01;80.54
51297;BME280;37380;45.186;9.792;2023-03-19T12:05:53;101436.22;;;19.67;72.83
51297;BME280;37380;45.186;9.792;2023-03-19T12:08:30;101430.25;;;19.93;67.14
51297;BME280;37380;45.186;9.792;2023-03-19T12:14:15;101422.91;;;17.16;77.68
51297;BME280;37380;45.186;9.792;2023-03-19T12:18:07;101422.59;;;17.01;78.95
51297;BME280;37380;45.186;9.792;2023-03-19T12:26:24;101394.19;;;18.46;73.46
51297;BME280;37380;45.186;9.792;2023-03-19T12:29:10;101421.69;;;17.96;75.67
51297;BME280;37380;45.186;9.792;2023-03-19T12:37:04;101327.84;;;16.71;79.72
51297;BME280;37380;45.186;9.792;2023-03-19T12:39:51;101315.72;;;16.79;81.49
51297;BME280;37380;45.186;9.792;2023-03-19T12:42:56;101394.00;;;16.38;82.43
51297;BME280;37380;45.186;9.792;2023-03-19T12:45:51;101391.38;;;17.26;78.65
51297;BME280;37380;45.186;9.792;2023-03-19T12:48:27;101390.72;;;17.37;75.49
51297;BME280;37380;45.186;9.792;2023-03-19T12:51:02;101384.25;;;17.73;75.41
51297;BME280;37380;45.186;9.792;2023-03-19T12:54:17;101382.16;;;18.04;74.97
51297;BME280;37380;45.186;9.792;2023-03-19T12:56:39;101391.63;;;17.90;72.16
51297;BME280;37380;45.186;9.792;2023-03-19T13:01:52;101304.25;;;18.49;71.73
51297;BME280;37380;45.186;9.792;2023-03-19T13:04:26;101362.28;;;19.07;71.08
51297;BME280;37380;45.186;9.792;2023-03-19T13:09:43;101379.03;;;19.04;69.30
51297;BME280;37380;45.186;9.792;2023-03-19T13:12:26;101340.06;;;17.63;74.06
51297;BME280;37380;45.186;9.792;2023-03-19T13:23:32;101281.91;;;16.17;82.30
51297;BME280;37380;45.186;9.792;2023-03-19T13:26:04;101340.53;;;16.89;81.76
51297;BME280;37380;45.186;9.792;2023-03-19T13:28:36;101358.81;;;17.25;82.89
51297;BME280;37380;45.186;9.792;2023-03-19T13:31:24;101363.63;;;17.51;80.61
51297;BME280;37380;45.186;9.792;2023-03-19T13:34:26;101357.03;;;17.77;77.05
51297;BME280;37380;45.186;9.792;2023-03-19T13:37:22;101315.63;;;17.23;78.86
51297;BME280;37380;45.186;9.792;2023-03-19T13:39:49;101332.16;;;17.63;77.45
51297;BME280;37380;45.186;9.792;2023-03-19T13:42:37;101344.13;;;16.50;82.27
51297;BME280;37380;45.186;9.792;2023-03-19T13:45:33;101354.22;;;16.71;83.45
51297;BME280;37380;45.186;9.792;2023-03-19T13:53:35;101341.66;;;17.02;79.23
51297;BME280;37380;45.186;9.792;2023-03-19T13:56:11;101340.13;;;17.14;80.82
51297;BME280;37380;45.186;9.792;2023-03-19T14:01:43;101231.25;;;16.32;81.97
51297;BME280;37380;45.186;9.792;2023-03-19T14:04:36;101339.88;;;16.57;86.20
51297;BME280;37380;45.186;9.792;2023-03-19T14:07:35;101281.88;;;16.60;81.68
51297;BME280;37380;45.186;9.792;2023-03-19T14:10:30;101324.47;;;16.78;82.05
51297;BME280;37380;45.186;9.792;2023-03-19T14:13:05;101341.50;;;16.94;82.18
51297;BME280;37380;45.186;9.792;2023-03-19T14:16:14;101337.44;;;16.67;84.64
51297;BME280;37380;45.186;9.792;2023-03-19T14:18:44;101241.72;;;16.29;84.00
51297;BME280;37380;45.186;9.792;2023-03-19T14:21:20;101334.41;;;16.91;83.71
51297;BME280;37380;45.186;9.792;2023-03-19T14:24:24;101324.78;;;16.93;84.25
51297;BME280;37380;45.186;9.792;2023-03-19T14:27:26;101317.72;;;16.92;82.23
51297;BME280;37380;45.186;9.792;2023-03-19T14:30:36;101321.00;;;16.79;83.41
51297;BME280;37380;45.186;9.792;2023-03-19T14:33:51;101302.50;;;16.35;84.99
51297;BME280;37380;45.186;9.792;2023-03-19T14:36:19;101303.81;;;16.56;84.33
51297;BME280;37380;45.186;9.792;2023-03-19T14:39:20;101326.03;;;16.68;85.69
51297;BME280;37380;45.186;9.792;2023-03-19T14:41:51;101313.59;;;16.63;83.28
51297;BME280;37380;45.186;9.792;2023-03-19T14:47:25;101322.50;;;16.68;85.90
51297;BME280;37380;45.186;9.792;2023-03-19T14:55:35;101314.78;;;16.35;85.26
51297;BME280;37380;45.186;9.792;2023-03-19T14:58:11;101297.66;;;16.14;86.62
51297;BME280;37380;45.186;9.792;2023-03-19T15:01:05;101315.47;;;16.24;85.84
51297;BME280;37380;45.186;9.792;2023-03-19T15:03:39;101275.31;;;15.97;86.90
51297;BME280;37380;45.186;9.792;2023-03-19T15:06:37;101319.91;;;16.27;87.22
51297;BME280;37380;45.186;9.792;2023-03-19T15:09:22;101312.13;;;16.35;87.82
51297;BME280;37380;45.186;9.792;2023-03-19T15:17:58;101303.13;;;15.82;88.38
51297;BME280;37380;45.186;9.792;2023-03-19T15:20:54;101316.53;;;15.93;88.29
51297;BME280;37380;45.186;9.792;2023-03-19T15:23:25;101316.47;;;15.90;88.20
51297;BME280;37380;45.186;9.792;2023-03-19T15:25:56;101314.97;;;16.01;88.20
51297;BME280;37380;45.186;9.792;2023-03-19T15:28:25;101313.22;;;16.02;87.74